Time,TemperatureF,DewpointF,PressureIn,WindDirection,WindDirectionDegrees,WindSpeedMPH,WindSpeedGustMPH,Humidity,HourlyPrecipIn,Conditions,Clouds,dailyrainin,SoftwareType,DateUTC
2013-02-15 00:02:00,32.0,30.0,30.01,West,278,1.0,3.0,92,0.00,,,0.00,,2013-02-15 05:02:00,
2013-02-15 00:12:00,32.0,30.0,30.01,West,278,1.0,3.0,92,0.00,,,0.00,,2013-02-15 05:12:00,
2013-02-15 00:22:00,32.0,30.0,30.01,West,273,2.0,4.0,92,0.00,,,0.00,,2013-02-15 05:22:00,
2013-02-15 00:32:00,32.0,30.0,30.01,West,281,2.0,5.0,92,0.00,,,0.00,,2013-02-15 05:32:00,
2013-02-15 00:42:00,32.0,30.0,30.01,West,281,2.0,5.0,92,0.00,,,0.00,,2013-02-15 05:42:00,
2013-02-15 00:52:00,32.0,30.0,30.01,WNW,288,4.0,7.0,92,0.00,,,0.00,,2013-02-15 05:52:00,
2013-02-15 01:02:00,32.0,30.0,30.01,WNW,286,3.0,7.0,92,0.00,,,0.00,,2013-02-15 06:02:00,
2013-02-15 01:11:00,32.0,30.0,30.01,WNW,286,3.0,7.0,92,0.00,,,0.00,,2013-02-15 06:11:00,
2013-02-15 01:22:00,32.0,30.0,30.01,WNW,294,2.0,5.0,92,0.00,,,0.00,,2013-02-15 06:22:00,
2013-02-15 01:32:00,31.0,29.0,30.01,West,281,2.0,4.0,92,0.00,,,0.00,,2013-02-15 06:32:00,
2013-02-15 01:42:00,31.0,29.0,30.01,West,281,2.0,4.0,92,0.00,,,0.00,,2013-02-15 06:42:00,
2013-02-15 01:51:00,32.0,30.0,30.01,WNW,282,3.0,5.0,93,0.00,,,0.00,,2013-02-15 06:51:00,
2013-02-15 02:01:00,31.0,29.0,30.01,WNW,283,1.0,3.0,92,0.00,,,0.00,,2013-02-15 07:01:00,
2013-02-15 02:11:00,31.0,29.0,30.01,WNW,283,1.0,3.0,92,0.00,,,0.00,,2013-02-15 07:11:00,
2013-02-15 02:21:00,31.0,29.0,30.02,West,272,1.0,4.0,93,0.00,,,0.00,,2013-02-15 07:21:00,
2013-02-15 02:31:00,31.0,29.0,30.02,WNW,282,0.0,4.0,93,0.00,,,0.00,,2013-02-15 07:31:00,
2013-02-15 02:42:00,31.0,29.0,30.02,WNW,282,0.0,4.0,93,0.00,,,0.00,,2013-02-15 07:42:00,
2013-02-15 02:52:00,31.0,29.0,30.02,WNW,282,0.0,2.0,94,0.00,,,0.00,,2013-02-15 07:52:00,
2013-02-15 03:01:00,30.0,28.0,30.02,WNW,283,0.0,2.0,94,0.00,,,0.00,,2013-02-15 08:01:00,
2013-02-15 03:11:00,30.0,28.0,30.02,WNW,283,0.0,2.0,94,0.00,,,0.00,,2013-02-15 08:11:00,
2013-02-15 03:21:00,31.0,29.0,30.02,WNW,298,1.0,3.0,94,0.00,,,0.00,,2013-02-15 08:21:00,
2013-02-15 03:32:00,31.0,29.0,30.02,WNW,298,1.0,3.0,94,0.00,,,0.00,,2013-02-15 08:32:00,
2013-02-15 03:42:00,31.0,29.0,30.02,WNW,298,1.0,3.0,94,0.00,,,0.00,,2013-02-15 08:42:00,
2013-02-15 03:52:00,31.0,29.0,30.03,West,279,1.0,2.0,94,0.00,,,0.00,,2013-02-15 08:52:00,
2013-02-15 04:02:00,31.0,30.0,30.03,West,281,0.0,2.0,95,0.00,,,0.00,,2013-02-15 09:02:00,
2013-02-15 04:12:00,31.0,30.0,30.03,West,281,0.0,2.0,95,0.00,,,0.00,,2013-02-15 09:12:00,
2013-02-15 04:21:00,30.0,28.0,30.03,West,281,0.0,0.0,94,0.00,,,0.00,,2013-02-15 09:21:00,
2013-02-15 04:32:00,31.0,30.0,30.03,West,267,2.0,5.0,95,0.00,,,0.00,,2013-02-15 09:32:00,
2013-02-15 04:42:00,31.0,30.0,30.03,West,267,2.0,5.0,95,0.00,,,0.00,,2013-02-15 09:42:00,
2013-02-15 04:52:00,31.0,30.0,30.03,West,279,0.0,4.0,95,0.00,,,0.00,,2013-02-15 09:52:00,
2013-02-15 05:01:00,31.0,30.0,30.03,WNW,286,2.0,4.0,95,0.00,,,0.00,,2013-02-15 10:01:00,
2013-02-15 05:11:00,31.0,30.0,30.03,WNW,286,2.0,4.0,95,0.00,,,0.00,,2013-02-15 10:11:00,
2013-02-15 05:21:00,31.0,30.0,30.04,WNW,294,3.0,5.0,95,0.00,,,0.00,,2013-02-15 10:21:00,
2013-02-15 05:31:00,31.0,30.0,30.04,WNW,294,2.0,4.0,95,0.00,,,0.00,,2013-02-15 10:31:00,
2013-02-15 05:41:00,31.0,30.0,30.04,WNW,294,2.0,4.0,95,0.00,,,0.00,,2013-02-15 10:41:00,
2013-02-15 05:51:00,31.0,29.0,30.05,WNW,302,2.0,4.0,94,0.00,,,0.00,,2013-02-15 10:51:00,
2013-02-15 06:01:00,31.0,29.0,30.05,WNW,300,2.0,4.0,93,0.00,,,0.00,,2013-02-15 11:01:00,
2013-02-15 06:11:00,31.0,29.0,30.05,WNW,300,2.0,4.0,93,0.00,,,0.00,,2013-02-15 11:11:00,
2013-02-15 06:22:00,31.0,29.0,30.06,WNW,293,4.0,6.0,92,0.00,,,0.00,,2013-02-15 11:22:00,
2013-02-15 06:32:00,31.0,29.0,30.06,WNW,300,4.0,8.0,92,0.00,,,0.00,,2013-02-15 11:32:00,
2013-02-15 06:42:00,31.0,29.0,30.06,WNW,300,4.0,8.0,92,0.00,,,0.00,,2013-02-15 11:42:00,
2013-02-15 06:52:00,32.0,30.0,30.06,NW,311,6.0,10.0,91,0.00,,,0.00,,2013-02-15 11:52:00,
2013-02-15 07:02:00,32.0,30.0,30.07,NW,313,6.0,10.0,92,0.00,,,0.00,,2013-02-15 12:02:00,
2013-02-15 07:11:00,32.0,30.0,30.07,NW,313,6.0,10.0,92,0.00,,,0.00,,2013-02-15 12:11:00,
2013-02-15 07:21:00,32.0,30.0,30.07,NW,316,6.0,11.0,92,0.00,,,0.00,,2013-02-15 12:21:00,
2013-02-15 07:32:00,31.0,29.0,30.08,NNW,328,7.0,11.0,92,0.00,,,0.00,,2013-02-15 12:32:00,
2013-02-15 07:42:00,31.0,29.0,30.08,NNW,328,7.0,11.0,92,0.00,,,0.00,,2013-02-15 12:42:00,
2013-02-15 07:52:00,31.0,29.0,30.08,NW,319,5.0,10.0,92,0.00,,,0.00,,2013-02-15 12:52:00,
2013-02-15 08:02:00,31.0,29.0,30.09,NW,317,4.0,9.0,93,0.00,,,0.00,,2013-02-15 13:02:00,
2013-02-15 08:11:00,31.0,29.0,30.09,NW,317,4.0,9.0,93,0.00,,,0.00,,2013-02-15 13:11:00,
2013-02-15 08:22:00,31.0,29.0,30.09,NNW,329,5.0,10.0,93,0.00,,,0.00,,2013-02-15 13:22:00,
2013-02-15 08:32:00,31.0,29.0,30.10,NW,305,5.0,8.0,93,0.00,,,0.00,,2013-02-15 13:32:00,
2013-02-15 08:42:00,31.0,29.0,30.10,NW,305,5.0,8.0,93,0.00,,,0.00,,2013-02-15 13:42:00,
2013-02-15 08:52:00,31.0,29.0,30.10,NW,322,5.0,10.0,93,0.00,,,0.00,,2013-02-15 13:52:00,
2013-02-15 09:01:00,31.0,29.0,30.11,WNW,300,7.0,10.0,92,0.00,,,0.00,,2013-02-15 14:01:00,
2013-02-15 09:12:00,31.0,29.0,30.11,WNW,300,7.0,10.0,92,0.00,,,0.00,,2013-02-15 14:12:00,
2013-02-15 09:21:00,31.0,29.0,30.11,NW,313,6.0,11.0,92,0.00,,,0.00,,2013-02-15 14:21:00,
2013-02-15 09:32:00,31.0,29.0,30.12,NNW,328,5.0,8.0,92,0.00,,,0.00,,2013-02-15 14:32:00,
2013-02-15 09:42:00,31.0,29.0,30.12,NNW,328,5.0,8.0,92,0.00,,,0.00,,2013-02-15 14:42:00,
2013-02-15 09:52:00,30.0,28.0,30.13,NNW,345,9.0,14.0,93,0.00,,,0.00,,2013-02-15 14:52:00,
2013-02-15 10:01:00,30.0,28.0,30.13,North,11,7.0,14.0,94,0.00,,,0.00,,2013-02-15 15:01:00,
2013-02-15 10:11:00,30.0,28.0,30.13,North,11,7.0,14.0,94,0.00,,,0.00,,2013-02-15 15:11:00,
2013-02-15 10:21:00,30.0,28.0,30.14,North,5,5.0,9.0,94,0.00,,,0.00,,2013-02-15 15:21:00,
2013-02-15 10:32:00,30.0,28.0,30.14,North,5,6.0,12.0,93,0.00,,,0.00,,2013-02-15 15:32:00,
2013-02-15 10:42:00,30.0,28.0,30.14,North,5,6.0,12.0,93,0.00,,,0.00,,2013-02-15 15:42:00,
2013-02-15 10:51:00,29.0,27.0,30.15,NNE,30,7.0,12.0,91,0.00,,,0.00,,2013-02-15 15:51:00,
2013-02-15 11:02:00,29.0,27.0,30.16,North,360,6.0,12.0,91,0.00,,,0.00,,2013-02-15 16:02:00,
2013-02-15 11:11:00,29.0,27.0,30.16,North,360,6.0,12.0,91,0.00,,,0.00,,2013-02-15 16:11:00,
2013-02-15 11:22:00,29.0,26.0,30.16,North,355,5.0,11.0,90,0.00,,,0.00,,2013-02-15 16:22:00,
2013-02-15 11:32:00,29.0,27.0,30.16,NNW,348,5.0,10.0,91,0.00,,,0.00,,2013-02-15 16:32:00,
2013-02-15 11:42:00,29.0,27.0,30.16,NNW,348,5.0,10.0,91,0.00,,,0.00,,2013-02-15 16:42:00,
2013-02-15 11:51:00,29.0,26.0,30.17,North,5,6.0,11.0,90,0.00,,,0.00,,2013-02-15 16:51:00,
2013-02-15 12:01:00,29.0,26.0,30.17,NNE,23,5.0,10.0,89,0.00,,,0.00,,2013-02-15 17:01:00,
2013-02-15 12:11:00,29.0,26.0,30.18,NNW,336,7.0,12.0,89,0.00,,,0.00,,2013-02-15 17:11:00,
2013-02-15 12:21:00,29.0,26.0,30.18,NNW,336,7.0,12.0,89,0.00,,,0.00,,2013-02-15 17:21:00,
2013-02-15 12:32:00,29.0,25.0,30.18,NW,319,7.0,14.0,86,0.00,,,0.00,,2013-02-15 17:32:00,
2013-02-15 12:42:00,29.0,25.0,30.18,NW,319,7.0,14.0,86,0.00,,,0.00,,2013-02-15 17:42:00,
2013-02-15 12:52:00,30.0,24.0,30.18,NNW,333,8.0,15.0,79,0.00,,,0.00,,2013-02-15 17:52:00,
2013-02-15 13:01:00,30.0,25.0,30.18,North,350,9.0,14.0,81,0.00,,,0.00,,2013-02-15 18:01:00,
2013-02-15 13:11:00,30.0,25.0,30.18,North,350,9.0,14.0,81,0.00,,,0.00,,2013-02-15 18:11:00,
2013-02-15 13:21:00,30.0,25.0,30.18,NW,313,9.0,13.0,80,0.00,,,0.00,,2013-02-15 18:21:00,
2013-02-15 13:32:00,30.0,25.0,30.18,NW,313,9.0,13.0,80,0.00,,,0.00,,2013-02-15 18:32:00,
2013-02-15 13:42:00,30.0,25.0,30.18,NW,313,9.0,13.0,80,0.00,,,0.00,,2013-02-15 18:42:00,
2013-02-15 13:52:00,30.0,24.0,30.18,NW,315,8.0,13.0,79,0.00,,,0.00,,2013-02-15 18:52:00,
2013-02-15 14:01:00,32.0,25.0,30.18,WNW,285,11.0,15.0,74,0.00,,,0.00,,2013-02-15 19:01:00,
2013-02-15 14:11:00,32.0,25.0,30.18,WNW,285,11.0,15.0,74,0.00,,,0.00,,2013-02-15 19:11:00,
2013-02-15 14:22:00,30.0,24.0,30.18,WNW,300,8.0,14.0,77,0.00,,,0.00,,2013-02-15 19:22:00,
2013-02-15 14:32:00,31.0,25.0,30.18,NW,313,8.0,14.0,77,0.00,,,0.00,,2013-02-15 19:32:00,
2013-02-15 14:41:00,31.0,25.0,30.18,NW,313,8.0,14.0,77,0.00,,,0.00,,2013-02-15 19:41:00,
2013-02-15 14:52:00,31.0,22.0,30.17,NW,325,8.0,15.0,69,0.00,,,0.00,,2013-02-15 19:52:00,
2013-02-15 15:01:00,32.0,21.0,30.17,NW,322,9.0,14.0,64,0.01,,,0.01,,2013-02-15 20:01:00,
2013-02-15 15:11:00,32.0,21.0,30.17,NW,322,9.0,14.0,64,0.01,,,0.01,,2013-02-15 20:11:00,
2013-02-15 15:21:00,32.0,20.0,30.17,North,355,6.0,14.0,61,0.01,,,0.01,,2013-02-15 20:21:00,
2013-02-15 15:32:00,32.0,20.0,30.17,NW,323,6.0,13.0,60,0.01,,,0.01,,2013-02-15 20:32:00,
2013-02-15 15:42:00,32.0,20.0,30.17,NW,323,6.0,13.0,60,0.01,,,0.01,,2013-02-15 20:42:00,
2013-02-15 15:52:00,32.0,20.0,30.17,NW,323,6.0,13.0,60,0.01,,,0.01,,2013-02-15 20:52:00,
2013-02-15 16:02:00,33.0,19.0,30.18,NW,316,9.0,13.0,57,0.00,,,0.01,,2013-02-15 21:02:00,
2013-02-15 16:11:00,33.0,19.0,30.18,NW,316,9.0,13.0,57,0.00,,,0.01,,2013-02-15 21:11:00,
2013-02-15 16:21:00,33.0,19.0,30.18,NW,306,10.0,15.0,57,0.00,,,0.01,,2013-02-15 21:21:00,
2013-02-15 16:32:00,33.0,19.0,30.19,NNW,340,6.0,14.0,57,0.00,,,0.01,,2013-02-15 21:32:00,
2013-02-15 16:42:00,33.0,19.0,30.19,NNW,340,6.0,14.0,57,0.00,,,0.01,,2013-02-15 21:42:00,
2013-02-15 16:52:00,33.0,19.0,30.19,NNW,348,5.0,13.0,55,0.00,,,0.01,,2013-02-15 21:52:00,
2013-02-15 17:02:00,33.0,19.0,30.19,North,351,4.0,11.0,56,0.00,,,0.01,,2013-02-15 22:02:00,
2013-02-15 17:11:00,33.0,19.0,30.19,North,351,4.0,11.0,56,0.00,,,0.01,,2013-02-15 22:11:00,
2013-02-15 17:22:00,32.0,16.0,30.19,NNW,331,8.0,12.0,52,0.00,,,0.01,,2013-02-15 22:22:00,
2013-02-15 17:31:00,32.0,18.0,30.19,NNW,327,8.0,12.0,55,0.00,,,0.01,,2013-02-15 22:31:00,
2013-02-15 17:41:00,32.0,18.0,30.19,NNW,327,8.0,12.0,55,0.00,,,0.01,,2013-02-15 22:41:00,
2013-02-15 17:51:00,32.0,19.0,30.19,WNW,300,8.0,13.0,59,0.00,,,0.01,,2013-02-15 22:51:00,
2013-02-15 18:02:00,31.0,20.0,30.20,WNW,301,6.0,11.0,62,0.00,,,0.01,,2013-02-15 23:02:00,
2013-02-15 18:11:00,31.0,20.0,30.20,WNW,301,6.0,11.0,62,0.00,,,0.01,,2013-02-15 23:11:00,
2013-02-15 18:21:00,31.0,18.0,30.20,NW,324,6.0,11.0,59,0.00,,,0.01,,2013-02-15 23:21:00,
2013-02-15 18:31:00,30.0,20.0,30.20,WNW,302,6.0,11.0,67,0.00,,,0.01,,2013-02-15 23:31:00,
2013-02-15 18:42:00,30.0,20.0,30.20,WNW,302,6.0,11.0,67,0.00,,,0.01,,2013-02-15 23:42:00,
2013-02-15 18:52:00,29.0,20.0,30.21,WNW,297,5.0,10.0,69,0.00,,,0.01,,2013-02-15 23:52:00,
2013-02-15 19:02:00,28.0,20.0,30.21,WNW,298,3.0,9.0,73,0.00,,,0.01,,2013-02-16 00:02:00,
2013-02-15 19:11:00,28.0,20.0,30.21,WNW,298,3.0,9.0,73,0.00,,,0.01,,2013-02-16 00:11:00,
2013-02-15 19:21:00,27.0,20.0,30.21,WNW,299,3.0,7.0,73,0.00,,,0.01,,2013-02-16 00:21:00,
2013-02-15 19:32:00,26.0,20.0,30.21,NW,304,2.0,4.0,77,0.00,,,0.01,,2013-02-16 00:32:00,
2013-02-15 19:41:00,26.0,20.0,30.21,NW,304,2.0,4.0,77,0.00,,,0.01,,2013-02-16 00:41:00,
2013-02-15 19:51:00,26.0,21.0,30.21,WNW,303,1.0,3.0,81,0.00,,,0.01,,2013-02-16 00:51:00,
2013-02-15 20:02:00,24.0,19.0,30.22,WNW,292,2.0,4.0,81,0.00,,,0.01,,2013-02-16 01:02:00,
2013-02-15 20:11:00,24.0,19.0,30.22,WNW,292,2.0,4.0,81,0.00,,,0.01,,2013-02-16 01:11:00,
2013-02-15 20:21:00,24.0,19.0,30.22,WNW,292,2.0,4.0,81,0.00,,,0.01,,2013-02-16 01:21:00,
2013-02-15 20:32:00,24.0,19.0,30.21,WNW,291,1.0,3.0,82,0.00,,,0.01,,2013-02-16 01:32:00,
2013-02-15 20:42:00,24.0,19.0,30.21,WNW,291,1.0,3.0,82,0.00,,,0.01,,2013-02-16 01:42:00,
2013-02-15 20:52:00,24.0,20.0,30.21,WNW,291,0.0,2.0,83,0.00,,,0.01,,2013-02-16 01:52:00,
2013-02-15 21:01:00,24.0,19.0,30.21,WNW,291,0.0,2.0,81,0.00,,,0.01,,2013-02-16 02:01:00,
2013-02-15 21:11:00,24.0,19.0,30.21,WNW,291,0.0,2.0,81,0.00,,,0.01,,2013-02-16 02:11:00,
2013-02-15 21:21:00,24.0,20.0,30.21,WNW,291,0.0,0.0,83,0.00,,,0.01,,2013-02-16 02:21:00,
2013-02-15 21:32:00,24.0,20.0,30.21,WNW,291,0.0,1.0,84,0.00,,,0.01,,2013-02-16 02:32:00,
2013-02-15 21:42:00,24.0,20.0,30.21,WNW,291,0.0,1.0,84,0.00,,,0.01,,2013-02-16 02:42:00,
2013-02-15 21:52:00,24.0,20.0,30.21,WNW,291,0.0,1.0,85,0.00,,,0.01,,2013-02-16 02:52:00,
2013-02-15 22:01:00,24.0,20.0,30.21,WNW,291,0.0,1.0,85,0.00,,,0.01,,2013-02-16 03:01:00,
2013-02-15 22:11:00,24.0,20.0,30.21,WNW,291,0.0,1.0,85,0.00,,,0.01,,2013-02-16 03:11:00,
2013-02-15 22:21:00,24.0,21.0,30.21,WNW,291,0.0,2.0,88,0.00,,,0.01,,2013-02-16 03:21:00,
2013-02-15 22:32:00,24.0,21.0,30.21,WNW,291,0.0,2.0,88,0.00,,,0.01,,2013-02-16 03:32:00,
2013-02-15 22:42:00,24.0,21.0,30.21,WNW,291,0.0,2.0,88,0.00,,,0.01,,2013-02-16 03:42:00,
2013-02-15 22:52:00,25.0,21.0,30.21,NW,325,5.0,8.0,84,0.00,,,0.01,,2013-02-16 03:52:00,
2013-02-15 23:01:00,26.0,19.0,30.21,NW,314,6.0,11.0,76,0.00,,,0.01,,2013-02-16 04:01:00,
2013-02-15 23:11:00,26.0,19.0,30.21,NW,314,6.0,11.0,76,0.00,,,0.01,,2013-02-16 04:11:00,
2013-02-15 23:21:00,25.0,18.0,30.20,NW,311,6.0,10.0,73,0.00,,,0.01,,2013-02-16 04:21:00,
2013-02-15 23:32:00,25.0,18.0,30.20,NW,322,5.0,12.0,75,0.00,,,0.01,,2013-02-16 04:32:00,
2013-02-15 23:41:00,25.0,18.0,30.20,NW,322,5.0,12.0,75,0.00,,,0.01,,2013-02-16 04:41:00,
2013-02-15 23:51:00,25.0,18.0,30.20,NW,322,5.0,12.0,75,0.00,,,0.01,,2013-02-16 04:51:00,